Latest Coastal Weather Observations for Merimbula

IDN60701

Issued at 8:21 am EDT Thursday 2 April 2015 (issued every 10 minutes, with the page automatically refreshed every 10 minutes)

About coastal observations | Map of coastal stations | Coastal observations for NSW | Marine services | Other Formats
Station Details ID: 069147 Name: MERIMBULA AIRPORT AWS Lat: -36.91 Lon: 149.90 Height: 1.5 m
Data from the previous 72 hours. | See also: Recent months at Merimbula
Date/Time
EDT
Temp

°C
Wind Pressure Rain
since 9am
mm
Weather Cloud Vis
km
Sea
Height
m
Swell
Dir
 
Speed
knots
Gust
knots
hPa Trend Height
m
Period
s
Dir
02/08:00am 16.8 SSW 8 10 1014.1 - 0.0 - - 10 - - - -
02/07:30am 17.0 W 1 5 1013.3 - 0.0 - - 10 - - - -
02/07:00am 17.8 NW 8 11 1012.9 - 0.0 - - 10 - - - -
02/06:30am 14.1 CALM 0 0 1012.8 - 0.0 - - 8 - - - -
02/06:00am 14.7 SSW 3 5 1012.8 - 0.0 - - 10 - - - -
02/05:30am 15.0 SW 5 7 1013.0 - 0.0 - - 10 - - - -
02/05:00am 15.2 CALM 0 0 1013.3 - 0.0 - - 9 - - - -
02/04:30am 15.4 CALM 0 0 1013.5 - 0.0 - - 9 - - - -
02/04:00am 15.7 CALM 0 0 1013.5 - 0.0 - - 10 - - - -
02/03:30am 15.8 CALM 0 0 1013.8 - 0.0 - - 10 - - - -
02/03:00am 15.7 CALM 0 0 1014.1 - 0.0 - - 10 - - - -
02/02:30am 16.3 CALM 0 0 1014.5 - 0.0 - - 10 - - - -
02/02:00am 16.5 CALM 0 0 1014.9 - 0.0 - - 10 - - - -
02/01:30am 16.6 CALM 0 0 1015.2 - 0.0 - - 10 - - - -
02/01:00am 16.7 CALM 0 0 1015.3 - 0.0 - - 10 - - - -
02/12:30am 16.9 CALM 0 0 1015.5 - 0.0 - - 10 - - - -
 
Date/Time
EDT
Temp

°C
Wind Pressure Rain
since 9am
mm
Weather Cloud Vis
km
Sea
Height
m
Swell
Dir
 
Speed
knots
Gust
knots
hPa Trend Height
m
Period
s
Dir
01/11:30pm 17.4 CALM 0 0 1016.1 - 0.0 - - 10 - - - -
01/11:00pm 18.2 CALM 0 0 1016.4 - 0.0 - - 10 - - - -
01/10:30pm 19.7 ENE 3 4 1016.3 - 0.0 - - 10 - - - -
01/10:00pm 20.2 NNE 3 5 1016.3 - 0.0 - - 10 - - - -
01/09:30pm 20.8 NNE 2 7 1016.3 - 0.0 - - 10 - - - -
01/09:00pm 21.2 CALM 0 0 1016.1 - 0.0 - - 10 - - - -
01/08:30pm 21.2 N 1 6 1016.3 - 0.0 - - 10 - - - -
01/08:00pm 21.4 CALM 0 0 1016.2 - 0.0 - - 10 - - - -
01/07:30pm 21.0 CALM 0 0 1015.9 - 0.0 - - 10 - - - -
01/07:00pm 21.7 ENE 2 6 1015.9 - 0.0 - - 10 - - - -
01/06:30pm 22.1 ENE 5 7 1015.8 - 0.0 - - 10 - - - -
01/06:00pm 22.6 NNE 3 9 1015.8 - 0.0 - - 10 - - - -
01/05:30pm 22.4 NNE 9 15 1015.7 - 0.0 - - 10 - - - -
01/05:00pm 22.5 NNE 12 19 1015.6 - 0.0 - - 10 - - - -
01/04:30pm 22.4 NNE 13 23 1016.1 - 0.0 - - 10 - - - -
01/04:00pm 22.8 NNE 14 22 1016.6 - 0.0 - - 10 - - - -
01/03:35pm 23.0 NNE 15 27 1016.7 - 0.0 - - 10 - - - -
01/03:30pm 23.0 NNE 14 24 1016.8 - 0.0 - - 10 - - - -
01/03:00pm 23.8 NNE 13 24 1017.3 - 0.0 - - 10 - - - -
01/02:30pm 23.9 NNE 13 20 1017.9 - 0.0 - - 10 - - - -
01/02:00pm 24.3 NNE 11 19 1018.4 - 0.0 - - 10 - - - -
01/01:30pm 23.3 NNE 12 19 1019.0 - 0.0 - - 10 - - - -
01/01:00pm 23.6 NE 13 21 1019.7 - 0.0 - - 10 - - - -
01/12:30pm 25.2 NE 10 16 1020.5 - 0.0 - - 10 - - - -
01/12:00pm 24.8 NNE 7 11 1021.1 - 0.0 - - 10 - - - -
01/11:30am 23.1 NE 5 8 1021.7 - 0.0 - - 10 - - - -
01/11:00am 22.4 NNE 5 9 1022.4 - 0.0 - - 10 - - - -
01/10:30am 22.2 NNE 7 11 1022.5 - 0.0 - - 10 - - - -
01/10:00am 20.9 NNW 3 6 1022.7 - 0.0 - - 10 - - - -
01/09:30am 18.3 CALM 0 0 1022.9 - 0.0 - - 10 - - - -
01/09:00am 16.9 CALM 0 0 1023.1 - 0.0 - - 10 - - - -
01/08:30am 14.5 CALM 0 0 1022.9 - 0.0 - - 10 - - - -
01/08:00am 12.4 CALM 0 0 1022.9 - 0.0 - - 10 - - - -
01/07:30am 11.7 CALM 0 0 1022.9 - 0.0 - - 10 - - - -
01/07:00am 12.1 CALM 0 0 1022.7 - 0.0 - - 10 - - - -
01/06:55am 12.1 CALM 0 0 1022.7 - 0.0 - - 9 - - - -
01/06:34am 11.7 CALM 0 0 1022.4 - 0.0 - - 5 - - - -
01/06:30am 11.9 CALM 0 0 1022.4 - 0.0 - - 8 - - - -
01/06:21am 12.0 CALM 0 0 1022.5 - 0.0 - - 8 - - - -
01/06:00am 11.4 CALM 0 0 1022.5 - 0.0 - - 5 - - - -
01/05:57am 11.5 CALM 0 0 1022.5 - 0.0 - - 5 - - - -
01/05:55am 11.6 CALM 0 0 1022.5 - 0.0 - - 6 - - - -
01/05:30am 11.9 CALM 0 0 1022.7 - 0.0 - - 2 - - - -
01/05:21am 11.9 CALM 0 0 1022.6 - 0.0 - - 5 - - - -
01/05:19am 11.9 CALM 0 0 1022.6 - 0.0 - - 6 - - - -
01/05:00am 11.7 CALM 0 0 1022.6 - 0.0 - - 2 - - - -
01/04:30am 12.1 CALM 0 0 1022.8 - 0.0 - - 4 - - - -
01/04:29am 12.1 CALM 0 0 1022.8 - 0.0 - - 4 - - - -
01/04:00am 12.3 CALM 0 0 1023.1 - 0.0 - - 8 - - - -
01/03:57am 12.4 CALM 0 0 1023.1 - 0.0 - - 7 - - - -
01/03:34am 12.1 CALM 0 0 1023.3 - 0.0 - - 5 - - - -
01/03:30am 12.2 CALM 0 0 1023.4 - 0.0 - - 6 - - - -
01/03:10am 12.5 CALM 0 0 1023.7 - 0.0 - - 9 - - - -
01/03:00am 12.6 CALM 0 0 1023.8 - 0.0 - Mostly clear 4 - - - -
01/02:30am 12.2 CALM 0 0 1024.2 - 0.0 - - 4 - - - -
01/02:00am 12.6 CALM 0 0 1024.5 - 0.0 - - 0.5 - - - -
01/01:30am 12.8 CALM 0 0 1024.7 - 0.0 - - 0.9 - - - -
01/01:00am 13.4 CALM 0 0 1024.8 - 0.0 - - 4 - - - -
01/12:30am 13.9 CALM 0 0 1024.9 - 0.0 - - 2 - - - -
01/12:00am 14.1 CALM 0 0 1025.0 - 0.0 - - 2 - - - -
 
Date/Time
EDT
Temp

°C
Wind Pressure Rain
since 9am
mm
Weather Cloud Vis
km
Sea
Height
m
Swell
Dir
 
Speed
knots
Gust
knots
hPa Trend Height
m
Period
s
Dir
31/11:54pm 14.3 CALM 0 0 1025.1 - 0.0 - - 5 - - - -
31/11:30pm 14.7 CALM 0 0 1025.2 - 0.0 - - 10 - - - -
31/11:00pm 16.0 SW 1 4 1025.1 - 0.0 - - 10 - - - -
31/10:30pm 17.7 NW 3 7 1025.1 - 0.0 - - 10 - - - -
31/10:00pm 17.4 NW 3 5 1025.1 - 0.0 - - 10 - - - -
31/09:30pm 17.4 NW 1 3 1025.3 - 0.0 - - 10 - - - -
31/09:00pm 18.2 NNW 3 5 1025.5 - 0.0 - - 10 - - - -
31/08:30pm 18.5 CALM 0 0 1025.6 - 0.0 - - 10 - - - -
31/08:00pm 19.2 CALM 0 0 1024.9 - 0.0 - - 10 - - - -
31/07:30pm 20.1 N 5 9 1024.6 - 0.0 - - 10 - - - -
31/07:00pm 20.6 NNE 5 11 1024.2 - 0.0 - - 10 - - - -
31/06:30pm 21.1 NNE 7 11 1024.1 - 0.0 - - 10 - - - -
31/06:00pm 21.5 NE 9 13 1024.1 - 0.0 - - 10 - - - -
31/05:30pm 22.0 NE 8 13 1024.0 - 0.0 - - 10 - - - -
31/05:00pm 22.4 NE 9 14 1023.9 - 0.0 - - 10 - - - -
31/04:30pm 23.2 NE 8 12 1023.9 - 0.0 - - 10 - - - -
31/04:00pm 23.7 E 8 13 1024.3 - 0.0 - - 10 - - - -
31/03:30pm 23.4 E 7 9 1024.7 - 0.0 - - 10 - - - -
31/03:00pm 23.6 ESE 7 9 1025.1 - 0.0 - - 10 - - - -
31/02:30pm 23.2 E 7 11 1025.4 - 0.0 - - 10 - - - -
31/02:00pm 23.4 ESE 7 11 1025.8 - 0.0 - - 10 - - - -
31/01:30pm 23.1 ESE 6 11 1026.4 - 0.0 - - 10 - - - -
31/01:00pm 22.6 ESE 7 10 1026.9 - 0.0 - - 10 - - - -
31/12:30pm 22.9 ESE 6 8 1027.3 - 0.0 - - 10 - - - -
31/12:00pm 22.9 ESE 6 10 1027.7 - 0.0 - - 10 - - - -
31/11:30am 22.5 E 6 9 1027.9 - 0.0 - - 10 - - - -
31/11:00am 21.1 ESE 4 7 1028.0 - 0.0 - - 10 - - - -
31/10:30am 20.8 CALM 0 0 1028.0 - 0.0 - - 10 - - - -
31/10:00am 18.7 CALM 0 0 1027.9 - 0.0 - - 10 - - - -
31/09:30am 17.0 WNW 1 4 1027.7 - 0.0 - - 10 - - - -
31/09:00am 15.2 SSW 3 5 1027.5 - 0.0 - - 10 - - - -
31/08:30am 14.6 CALM 0 0 1027.4 - 0.0 - - 10 - - - -
31/08:00am 12.3 SW 1 4 1027.1 - 0.0 - - 10 - - - -
31/07:30am 11.6 CALM 0 0 1026.7 - 0.0 - - 10 - - - -
31/07:10am 11.2 SW 2 4 1026.4 - 0.0 - - 5 - - - -
31/07:00am 11.5 SW 4 5 1026.2 - 0.0 - - 10 - - - -
31/06:30am 11.4 SSW 4 5 1026.2 - 0.0 - - 10 - - - -
31/06:16am 11.5 SSW 3 6 1026.1 - 0.0 - - 10 - - - -
31/06:00am 11.3 SW 2 4 1026.1 - 0.0 - - 4 - - - -
31/05:57am 11.4 SW 3 4 1026.1 - 0.0 - - 5 - - - -
31/05:44am 11.3 SW 2 4 1026.0 - 0.0 - - 8 - - - -
31/05:30am 11.2 CALM 0 0 1025.9 - 0.0 - - 5 - - - -
31/05:27am 11.3 SW 1 3 1025.9 - 0.0 - - 5 - - - -
31/05:00am 11.8 CALM 0 0 1025.8 - 0.0 - - 10 - - - -
31/04:30am 11.5 CALM 0 0 1025.7 - 0.0 - - 10 - - - -
31/04:00am 12.7 CALM 0 0 1025.9 - 0.0 - - 10 - - - -
31/03:30am 12.3 CALM 0 0 1026.1 - 0.0 - - 10 - - - -
31/03:00am 12.3 CALM 0 0 1026.3 - 0.0 - - 10 - - - -
31/02:30am 12.2 CALM 0 0 1026.5 - 0.0 - - 10 - - - -
31/02:00am 12.7 W 1 4 1026.6 - 0.0 - - 10 - - - -
31/01:30am 13.3 NW 4 6 1026.5 - 0.0 - - 10 - - - -
31/01:00am 12.6 CALM 0 0 1026.3 - 0.0 - - 10 - - - -
31/12:30am 13.3 CALM 0 0 1026.2 - 0.0 - - 10 - - - -
31/12:00am 13.9 SW 4 5 1026.3 - 0.0 - - 10 - - - -
 
Date/Time
EDT
Temp

°C
Wind Pressure Rain
since 9am
mm
Weather Cloud Vis
km
Sea
Height
m
Swell
Dir
 
Speed
knots
Gust
knots
hPa Trend Height
m
Period
s
Dir
30/11:30pm 14.3 WSW 3 4 1026.3 - 0.0 - - 10 - - - -
30/11:00pm 14.3 CALM 0 0 1026.3 - 0.0 - - 10 - - - -
30/10:30pm 14.9 CALM 0 0 1026.3 - 0.0 - - 10 - - - -
30/10:00pm 14.5 CALM 0 0 1026.3 - 0.0 - - 10 - - - -
30/09:30pm 14.7 CALM 0 3 1026.1 - 0.0 - - 10 - - - -
30/09:00pm 15.8 CALM 0 0 1026.1 - 0.0 - - 10 - - - -
30/08:30pm 16.4 W 4 5 1025.9 - 0.0 - - 10 - - - -
30/08:00pm 16.4 CALM 0 0 1025.5 - 0.0 - - 10 - - - -
30/07:30pm 17.1 CALM 0 0 1025.0 - 0.0 - - 10 - - - -
30/07:00pm 18.4 CALM 0 0 1024.6 - 0.0 - - 10 - - - -
30/06:30pm 20.0 NE 2 4 1024.3 - 0.0 - - 10 - - - -
30/06:00pm 20.9 NE 4 6 1023.8 - 0.0 - - 10 - - - -
30/05:30pm 21.0 NE 5 6 1023.4 - 0.0 - - 10 - - - -
30/05:00pm 21.2 E 5 8 1023.1 - 0.0 - - 10 - - - -
30/04:30pm 21.8 ENE 7 9 1022.9 - 0.0 - - 10 - - - -
30/04:00pm 22.4 ENE 8 11 1022.7 - 0.0 - - 10 - - - -
30/03:30pm 22.8 ENE 8 11 1022.7 - 0.0 - - 10 - - - -
30/03:00pm 22.1 ENE 8 11 1022.6 - 0.0 - - 10 - - - -
30/02:30pm 22.1 ENE 8 11 1022.7 - 0.0 - - 10 - - - -
30/02:00pm 23.0 ENE 9 13 1022.8 - 0.0 - - 10 - - - -
30/01:30pm 22.9 ENE 9 12 1023.1 - 0.0 - - 10 - - - -
30/01:00pm 22.0 E 8 11 1023.2 - 0.0 - - 10 - - - -
30/12:30pm 22.3 ENE 8 11 1023.7 - 0.0 - - 10 - - - -
30/12:00pm 22.4 E 8 11 1023.9 - 0.0 - - 10 - - - -
30/11:30am 22.0 NW 4 7 1024.4 - 0.0 - - 10 - - - -
30/11:00am 21.4 NW 5 8 1024.8 - 0.0 - - 10 - - - -
30/10:30am 21.3 NW 3 8 1025.1 - 0.0 - - 10 - - - -
30/10:00am 19.9 CALM 0 0 1025.1 - 0.0 - - 10 - - - -
30/09:30am 17.5 CALM 0 0 1025.1 - 0.0 - - 10 - - - -
30/09:00am 14.6 SW 1 5 1025.0 - 0.0 - - 10 - - - -
30/08:30am 12.6 SW 4 5 1024.9 - 0.0 - - 10 - - - -

Other Formats:

Comma delimited format used in spreadsheet applications
http://www.bom.gov.au/fwo/IDN60701/IDN60701.95929.axf

JavaScript Object Notation format (JSON) in row-major order
http://www.bom.gov.au/fwo/IDN60701/IDN60701.95929.json